createdAt,value
2023-01-22T00:02:57.155Z,11.27
2023-01-22T00:06:58.256Z,11.40
2023-01-22T00:11:00.213Z,11.00
2023-01-22T00:15:01.806Z,11.10
2023-01-22T00:19:02.951Z,11.50
2023-01-22T00:23:04.107Z,12.40
2023-01-22T00:27:05.663Z,12.23
2023-01-22T00:31:07.968Z,12.43
2023-01-22T00:35:09.233Z,10.47
2023-01-22T00:39:10.365Z,11.30
2023-01-22T00:43:11.511Z,10.87
2023-01-22T00:47:12.676Z,11.47
2023-01-22T00:51:14.954Z,10.40
2023-01-22T00:55:16.581Z,9.70
2023-01-22T00:59:17.752Z,11.73
2023-01-22T01:03:32.057Z,8.90
2023-01-22T01:07:33.162Z,10.53
2023-01-22T01:11:34.349Z,9.90
2023-01-22T01:15:35.508Z,11.30
2023-01-22T01:19:36.673Z,9.77
2023-01-22T01:23:38.611Z,9.07
2023-01-22T01:27:39.791Z,10.23
2023-01-22T01:31:41.278Z,11.00
2023-01-22T01:35:42.739Z,9.70
2023-01-22T01:39:43.896Z,10.03
2023-01-22T01:43:44.979Z,9.70
2023-01-22T01:47:49.843Z,9.30
2023-01-22T01:51:54.641Z,8.20
2023-01-22T01:55:58.009Z,8.03
2023-01-22T02:00:01.033Z,8.27
2023-01-22T02:04:02.479Z,8.27
2023-01-22T02:08:06.474Z,7.80
2023-01-22T02:12:08.527Z,9.07
2023-01-22T02:16:11.162Z,7.87
2023-01-22T02:20:12.421Z,7.00
2023-01-22T02:24:15.616Z,8.20
2023-01-22T02:28:17.452Z,8.27
2023-01-22T02:32:18.717Z,8.40
2023-01-22T02:36:20.579Z,7.87
2023-01-22T02:40:22.136Z,7.90
2023-01-22T02:44:23.589Z,9.90
2023-01-22T02:48:24.761Z,7.07
2023-01-22T02:52:25.927Z,6.53
2023-01-22T02:56:27.096Z,7.20
2023-01-22T03:00:28.272Z,7.20
2023-01-22T03:04:29.553Z,6.70
2023-01-22T03:08:30.729Z,7.00
2023-01-22T03:12:50.372Z,6.67
2023-01-22T03:17:10.612Z,6.00
2023-01-22T03:21:21.674Z,5.87
2023-01-22T03:25:22.776Z,6.30
2023-01-22T03:29:23.916Z,6.67
2023-01-22T03:33:25.387Z,7.30
2023-01-22T03:37:26.549Z,6.47
2023-01-22T03:41:27.731Z,6.80
2023-01-22T03:45:30.998Z,5.13
2023-01-22T03:49:32.181Z,6.80
2023-01-22T03:53:34.346Z,5.93
2023-01-22T03:57:35.511Z,5.70
2023-01-22T04:01:37.583Z,7.00
2023-01-22T04:05:38.744Z,6.60
2023-01-22T04:09:39.886Z,6.20
2023-01-22T04:13:42.951Z,6.20
2023-01-22T04:17:44.101Z,5.83
2023-01-22T04:21:46.285Z,6.70
2023-01-22T04:25:47.976Z,5.57
2023-01-22T04:29:49.118Z,4.77
2023-01-22T04:33:50.275Z,4.93
2023-01-22T04:37:51.461Z,6.17
2023-01-22T04:41:52.622Z,7.23
2023-01-22T04:45:53.809Z,6.60
2023-01-22T04:49:54.940Z,5.33
2023-01-22T04:53:56.116Z,5.93
2023-01-22T04:57:58.751Z,5.90
2023-01-22T05:01:59.894Z,5.60
2023-01-22T05:06:04.656Z,5.67
2023-01-22T05:10:06.496Z,6.37
2023-01-22T05:14:10.380Z,5.30
2023-01-22T05:18:10.920Z,5.40
2023-01-22T05:22:12.569Z,5.93
2023-01-22T05:26:13.760Z,5.00
2023-01-22T05:30:15.546Z,6.10
2023-01-22T05:34:17.065Z,5.50
2023-01-22T05:38:18.233Z,6.07
2023-01-22T05:42:20.437Z,5.50
2023-01-22T05:46:21.683Z,5.30
2023-01-22T05:51:10.411Z,5.23
2023-01-22T05:55:11.732Z,5.23
2023-01-22T05:59:12.956Z,5.40
2023-01-22T06:03:14.110Z,4.90
2023-01-22T06:07:15.294Z,6.20
2023-01-22T06:11:16.769Z,5.53
2023-01-22T06:15:17.961Z,4.90
2023-01-22T06:19:19.114Z,5.90
2023-01-22T06:23:22.113Z,5.17
2023-01-22T06:27:23.299Z,5.90
2023-01-22T06:31:24.567Z,5.17
2023-01-22T06:35:25.769Z,4.93
2023-01-22T06:39:26.952Z,5.43
2023-01-22T06:43:28.323Z,10.83
2023-01-22T06:47:29.506Z,5.20
2023-01-22T06:51:31.603Z,5.80
2023-01-22T06:55:32.900Z,5.53
2023-01-22T06:59:36.241Z,5.33
2023-01-22T07:03:37.090Z,5.70
2023-01-22T07:07:38.406Z,5.53
2023-01-22T07:11:39.584Z,5.30
2023-01-22T07:15:41.655Z,4.70
2023-01-22T07:19:42.850Z,5.37
2023-01-22T07:23:43.991Z,5.90
2023-01-22T07:27:45.185Z,6.10
2023-01-22T07:31:49.504Z,5.70
2023-01-22T07:35:56.347Z,6.33
2023-01-22T07:39:57.490Z,5.30
2023-01-22T07:43:59.790Z,5.10
2023-01-22T07:48:02.031Z,5.63
2023-01-22T07:52:03.381Z,6.00
2023-01-22T07:56:05.588Z,7.07
2023-01-22T08:00:10.109Z,7.50
2023-01-22T08:04:11.398Z,5.70
2023-01-22T08:08:15.971Z,6.10
2023-01-22T08:12:17.148Z,8.03
2023-01-22T08:16:18.367Z,6.07
2023-01-22T08:20:20.742Z,5.70
2023-01-22T08:24:21.999Z,9.57
2023-01-22T08:28:23.201Z,5.67
2023-01-22T08:32:24.591Z,8.17
2023-01-22T08:36:26.073Z,5.40
2023-01-22T08:40:27.652Z,5.10
2023-01-22T08:44:28.821Z,5.60
2023-01-22T08:48:30.028Z,8.63
2023-01-22T08:52:31.213Z,6.90
2023-01-22T08:56:32.401Z,6.90
2023-01-22T09:00:33.535Z,7.27
2023-01-22T09:04:34.727Z,6.13
2023-01-22T09:08:35.894Z,7.13
2023-01-22T09:12:38.303Z,7.03
2023-01-22T09:16:39.828Z,6.30
2023-01-22T09:20:40.947Z,6.17
2023-01-22T09:24:42.153Z,6.57
2023-01-22T09:28:43.336Z,5.80
2023-01-22T09:32:44.508Z,5.83
2023-01-22T09:36:45.673Z,6.60
2023-01-22T09:40:50.755Z,6.43
2023-01-22T09:44:55.720Z,6.07
2023-01-22T09:49:01.721Z,5.70
2023-01-22T09:53:06.620Z,5.80
2023-01-22T09:57:14.852Z,5.90
2023-01-22T10:01:15.846Z,5.80
2023-01-22T10:05:29.694Z,6.13
2023-01-22T10:09:32.366Z,5.60
2023-01-22T10:13:35.559Z,7.73
2023-01-22T10:17:38.923Z,6.00
2023-01-22T10:21:53.057Z,8.50
2023-01-22T10:26:02.178Z,6.40
2023-01-22T10:30:10.264Z,6.40
2023-01-22T10:34:18.301Z,6.90
2023-01-22T10:38:25.803Z,7.90
2023-01-22T10:42:28.863Z,9.83
2023-01-22T10:46:30.323Z,7.60
2023-01-22T10:50:31.682Z,6.43
2023-01-22T10:54:43.091Z,5.80
2023-01-22T10:58:47.596Z,6.63
2023-01-22T11:02:50.451Z,6.93
2023-01-22T11:07:21.478Z,6.40
2023-01-22T11:11:31.113Z,6.50
2023-01-22T11:15:42.791Z,6.97
2023-01-22T11:20:03.092Z,5.73
2023-01-22T11:24:18.087Z,6.53
2023-01-22T11:28:32.397Z,5.70
2023-01-22T11:32:54.392Z,5.57
2023-01-22T11:37:05.072Z,6.07
2023-01-22T11:41:22.346Z,5.60
2023-01-22T11:45:36.308Z,5.87
2023-01-22T11:49:52.035Z,6.40
2023-01-22T11:54:21.298Z,5.70
2023-01-22T11:58:50.467Z,4.90
2023-01-22T12:03:01.605Z,5.23
2023-01-22T12:07:37.288Z,6.40
2023-01-22T12:11:45.251Z,9.30
2023-01-22T12:15:55.970Z,4.93
2023-01-22T12:20:16.813Z,6.00
2023-01-22T12:24:43.291Z,5.90
2023-01-22T12:28:48.260Z,6.80
2023-01-22T12:32:56.203Z,8.40
2023-01-22T12:36:59.683Z,6.30
2023-01-22T12:41:33.821Z,6.60
2023-01-22T12:45:51.109Z,7.23
2023-01-22T12:49:52.948Z,6.37
2023-01-22T12:53:54.086Z,6.43
2023-01-22T12:57:56.063Z,7.53
2023-01-22T13:01:59.479Z,7.37
2023-01-22T13:06:03.003Z,5.77
2023-01-22T13:10:09.096Z,6.97
2023-01-22T13:14:30.725Z,5.70
2023-01-22T13:18:35.109Z,6.00
2023-01-22T13:22:36.981Z,8.33
2023-01-22T13:26:38.649Z,7.40
2023-01-22T13:30:39.853Z,5.00
2023-01-22T13:34:41.175Z,5.40
2023-01-22T13:38:46.251Z,5.97
2023-01-22T13:42:47.630Z,5.67
2023-01-22T13:46:51.109Z,4.93
2023-01-22T13:50:56.156Z,6.87
2023-01-22T13:55:15.083Z,7.63
2023-01-22T13:59:26.663Z,9.00
2023-01-22T14:03:29.445Z,6.77
2023-01-22T14:07:33.667Z,6.37
2023-01-22T14:11:39.673Z,6.90
2023-01-22T14:15:41.744Z,6.90
2023-01-22T14:19:42.920Z,8.03
2023-01-22T14:23:45.518Z,9.03
2023-01-22T14:27:49.017Z,8.40
2023-01-22T14:31:50.229Z,8.03
2023-01-22T14:35:52.779Z,7.90
2023-01-22T14:39:53.940Z,7.53
2023-01-22T14:43:56.119Z,7.20
2023-01-22T14:48:00.582Z,6.70
2023-01-22T14:52:02.242Z,6.80
2023-01-22T14:56:04.312Z,4.90
2023-01-22T15:00:06.975Z,6.13
2023-01-22T15:04:08.206Z,5.30
2023-01-22T15:08:09.381Z,5.43
2023-01-22T15:12:10.546Z,5.17
2023-01-22T15:16:11.765Z,5.27
2023-01-22T15:20:12.899Z,5.80
2023-01-22T15:24:14.195Z,6.20
2023-01-22T15:28:15.398Z,6.30
2023-01-22T15:32:16.580Z,6.70
2023-01-22T15:36:17.951Z,6.43
2023-01-22T15:40:20.620Z,6.93
2023-01-22T15:44:21.971Z,6.60
2023-01-22T15:48:23.140Z,7.40
2023-01-22T15:52:24.331Z,6.90
2023-01-22T15:56:27.710Z,6.27
2023-01-22T16:00:29.205Z,7.33
2023-01-22T16:04:30.412Z,7.30
2023-01-22T16:08:31.650Z,7.80
2023-01-22T16:12:34.135Z,7.27
2023-01-22T16:16:37.197Z,7.60
2023-01-22T16:20:38.379Z,6.90
2023-01-22T16:24:39.541Z,7.10
2023-01-22T16:28:42.325Z,7.87
2023-01-22T16:32:45.409Z,7.93
2023-01-22T16:36:48.094Z,8.80
2023-01-22T16:40:49.880Z,7.87
2023-01-22T16:44:51.072Z,7.40
2023-01-22T16:49:07.213Z,6.97
2023-01-22T16:53:08.379Z,7.47
2023-01-22T16:57:09.557Z,6.63
2023-01-22T17:01:14.579Z,7.67
2023-01-22T17:05:16.260Z,8.70
2023-01-22T17:09:23.677Z,9.30
2023-01-22T17:13:25.398Z,7.60
2023-01-22T17:17:27.112Z,7.83
2023-01-22T17:21:29.543Z,8.50
2023-01-22T17:25:30.823Z,8.57
2023-01-22T17:29:34.004Z,9.60
2023-01-22T17:33:36.008Z,8.63
2023-01-22T17:37:37.248Z,7.83
2023-01-22T17:41:38.443Z,9.27
2023-01-22T17:45:39.637Z,10.03
2023-01-22T17:49:40.812Z,9.10
2023-01-22T17:53:43.603Z,8.20
2023-01-22T17:57:44.768Z,8.63
2023-01-22T18:01:46.741Z,8.63
2023-01-22T18:05:50.453Z,7.87
2023-01-22T18:09:51.893Z,9.20
2023-01-22T18:13:57.935Z,9.97
2023-01-22T18:17:59.429Z,11.60
2023-01-22T18:22:00.628Z,11.87
2023-01-22T18:26:04.494Z,13.13
2023-01-22T18:30:07.936Z,10.33
2023-01-22T18:34:12.935Z,10.37
2023-01-22T18:38:14.610Z,10.80
2023-01-22T18:42:15.814Z,11.37
2023-01-22T18:46:17.733Z,12.20
2023-01-22T18:50:20.629Z,10.30
2023-01-22T18:54:21.807Z,11.13
2023-01-22T18:58:35.325Z,10.37
2023-01-22T19:02:36.623Z,9.90
2023-01-22T19:06:38.369Z,10.27
2023-01-22T19:10:39.565Z,9.50
2023-01-22T19:14:40.753Z,9.23
2023-01-22T19:18:43.232Z,10.60
2023-01-22T19:22:44.427Z,10.53
2023-01-22T19:26:46.812Z,10.83
2023-01-22T19:30:48.246Z,9.80
2023-01-22T19:34:49.377Z,9.30
2023-01-22T19:38:50.562Z,9.07
2023-01-22T19:42:51.742Z,10.03
2023-01-22T19:46:52.988Z,10.53
2023-01-22T19:50:58.710Z,9.10
2023-01-22T19:54:59.991Z,8.80
2023-01-22T19:59:07.182Z,11.60
2023-01-22T20:03:08.599Z,10.87
2023-01-22T20:07:09.933Z,12.70
2023-01-22T20:11:12.513Z,9.33
2023-01-22T20:15:16.290Z,9.63
2023-01-22T20:19:16.922Z,12.70
2023-01-22T20:23:18.166Z,12.43
2023-01-22T20:27:19.332Z,11.23
2023-01-22T20:31:22.597Z,10.03
2023-01-22T20:35:23.786Z,9.50
2023-01-22T20:39:25.074Z,8.60
2023-01-22T20:43:26.269Z,10.30
2023-01-22T20:47:27.434Z,8.80
2023-01-22T20:51:30.103Z,9.67
2023-01-22T20:55:31.289Z,10.57
2023-01-22T20:59:32.431Z,10.13
2023-01-22T21:03:34.134Z,8.83
2023-01-22T21:07:35.187Z,9.50
2023-01-22T21:11:38.270Z,10.10
2023-01-22T21:15:39.423Z,10.20
2023-01-22T21:19:42.360Z,10.37
2023-01-22T21:23:45.889Z,9.87
2023-01-22T21:27:48.129Z,9.73
2023-01-22T21:31:52.021Z,10.07
2023-01-22T21:35:53.477Z,9.40
2023-01-22T21:39:54.634Z,10.57
2023-01-22T21:44:14.389Z,11.37
2023-01-22T21:48:15.532Z,10.70
2023-01-22T21:52:16.729Z,11.40
2023-01-22T21:56:17.883Z,10.07
2023-01-22T22:00:19.558Z,10.00
2023-01-22T22:04:23.015Z,10.77
2023-01-22T22:08:24.177Z,11.40
2023-01-22T22:12:27.043Z,10.60
2023-01-22T22:16:28.260Z,11.70
2023-01-22T22:20:29.390Z,12.17
2023-01-22T22:24:30.581Z,9.50
2023-01-22T22:28:33.269Z,11.13
2023-01-22T22:32:34.456Z,12.30
2023-01-22T22:36:35.681Z,12.03
2023-01-22T22:40:36.839Z,10.23
2023-01-22T22:44:37.978Z,12.17
2023-01-22T22:48:39.360Z,10.90
2023-01-22T22:52:41.523Z,11.30
2023-01-22T22:56:44.002Z,9.80
2023-01-22T23:00:45.476Z,11.00
2023-01-22T23:04:46.816Z,10.17
2023-01-22T23:08:51.994Z,10.37
2023-01-22T23:12:53.548Z,8.33
2023-01-22T23:16:55.457Z,10.70
2023-01-22T23:20:56.572Z,9.57
2023-01-22T23:24:57.742Z,8.90
2023-01-22T23:33:08.521Z,9.30
2023-01-22T23:37:09.790Z,10.40
2023-01-22T23:41:13.295Z,9.00
2023-01-22T23:45:14.883Z,9.17
2023-01-22T23:49:16.060Z,8.50
2023-01-22T23:53:17.252Z,8.80
2023-01-22T23:57:18.440Z,8.90
